sensor_id;sensor_type;location;lat;lon;timestamp;P1;durP1;ratioP1;P2;durP2;ratioP2
2408;SDS011;8463;48.094;7.970;2023-03-29T00:00:27;2.53;;;2.00;;
2408;SDS011;8463;48.094;7.970;2023-03-29T00:02:53;3.73;;;2.00;;
2408;SDS011;8463;48.094;7.970;2023-03-29T00:05:20;2.93;;;2.17;;
2408;SDS011;8463;48.094;7.970;2023-03-29T00:07:49;2.63;;;1.97;;
2408;SDS011;8463;48.094;7.970;2023-03-29T00:10:18;2.00;;;1.90;;
2408;SDS011;8463;48.094;7.970;2023-03-29T00:12:45;2.20;;;2.00;;
2408;SDS011;8463;48.094;7.970;2023-03-29T00:15:11;2.53;;;2.03;;
2408;SDS011;8463;48.094;7.970;2023-03-29T00:17:39;2.20;;;2.00;;
2408;SDS011;8463;48.094;7.970;2023-03-29T00:20:05;2.23;;;2.03;;
2408;SDS011;8463;48.094;7.970;2023-03-29T00:22:38;3.20;;;1.87;;
2408;SDS011;8463;48.094;7.970;2023-03-29T00:25:06;2.10;;;1.67;;
2408;SDS011;8463;48.094;7.970;2023-03-29T00:27:32;2.30;;;2.07;;
2408;SDS011;8463;48.094;7.970;2023-03-29T00:29:58;2.87;;;2.63;;
2408;SDS011;8463;48.094;7.970;2023-03-29T00:32:24;1.63;;;1.50;;
2408;SDS011;8463;48.094;7.970;2023-03-29T00:34:50;2.13;;;1.70;;
2408;SDS011;8463;48.094;7.970;2023-03-29T00:37:16;2.60;;;1.60;;
2408;SDS011;8463;48.094;7.970;2023-03-29T00:39:43;3.07;;;1.67;;
2408;SDS011;8463;48.094;7.970;2023-03-29T00:42:14;2.37;;;1.60;;
2408;SDS011;8463;48.094;7.970;2023-03-29T00:50:20;2.80;;;1.90;;
2408;SDS011;8463;48.094;7.970;2023-03-29T00:55:21;2.10;;;1.90;;
2408;SDS011;8463;48.094;7.970;2023-03-29T00:57:51;1.93;;;1.60;;
2408;SDS011;8463;48.094;7.970;2023-03-29T01:00:21;2.40;;;2.00;;
2408;SDS011;8463;48.094;7.970;2023-03-29T01:02:52;2.50;;;1.97;;
2408;SDS011;8463;48.094;7.970;2023-03-29T01:05:32;2.10;;;1.77;;
2408;SDS011;8463;48.094;7.970;2023-03-29T01:08:02;2.80;;;1.70;;
2408;SDS011;8463;48.094;7.970;2023-03-29T01:13:14;1.77;;;1.30;;
2408;SDS011;8463;48.094;7.970;2023-03-29T01:15:45;2.37;;;1.80;;
2408;SDS011;8463;48.094;7.970;2023-03-29T01:18:15;2.30;;;1.73;;
2408;SDS011;8463;48.094;7.970;2023-03-29T01:29:01;2.40;;;2.10;;
2408;SDS011;8463;48.094;7.970;2023-03-29T01:31:33;3.00;;;2.70;;
2408;SDS011;8463;48.094;7.970;2023-03-29T01:36:56;4.87;;;2.20;;
2408;SDS011;8463;48.094;7.970;2023-03-29T01:39:35;2.40;;;1.77;;
2408;SDS011;8463;48.094;7.970;2023-03-29T01:42:09;3.30;;;2.20;;
2408;SDS011;8463;48.094;7.970;2023-03-29T01:44:51;2.70;;;1.80;;
2408;SDS011;8463;48.094;7.970;2023-03-29T01:53:02;2.40;;;2.17;;
2408;SDS011;8463;48.094;7.970;2023-03-29T01:55:58;2.07;;;1.60;;
2408;SDS011;8463;48.094;7.970;2023-03-29T01:58:31;2.33;;;1.93;;
2408;SDS011;8463;48.094;7.970;2023-03-29T02:01:00;3.00;;;2.33;;
2408;SDS011;8463;48.094;7.970;2023-03-29T02:03:29;2.20;;;2.10;;
2408;SDS011;8463;48.094;7.970;2023-03-29T02:05:57;2.20;;;1.90;;
2408;SDS011;8463;48.094;7.970;2023-03-29T02:08:24;2.37;;;2.20;;
2408;SDS011;8463;48.094;7.970;2023-03-29T02:10:51;4.00;;;2.00;;
2408;SDS011;8463;48.094;7.970;2023-03-29T02:13:17;3.90;;;2.10;;
2408;SDS011;8463;48.094;7.970;2023-03-29T02:15:46;2.13;;;1.70;;
2408;SDS011;8463;48.094;7.970;2023-03-29T02:18:13;3.57;;;2.70;;
2408;SDS011;8463;48.094;7.970;2023-03-29T02:20:42;3.10;;;1.87;;
2408;SDS011;8463;48.094;7.970;2023-03-29T02:23:19;4.43;;;1.80;;
2408;SDS011;8463;48.094;7.970;2023-03-29T02:25:58;2.67;;;2.00;;
2408;SDS011;8463;48.094;7.970;2023-03-29T02:28:28;2.47;;;1.70;;
2408;SDS011;8463;48.094;7.970;2023-03-29T02:33:38;3.30;;;2.20;;
2408;SDS011;8463;48.094;7.970;2023-03-29T02:39:04;2.37;;;1.80;;
2408;SDS011;8463;48.094;7.970;2023-03-29T02:41:34;2.23;;;1.30;;
2408;SDS011;8463;48.094;7.970;2023-03-29T02:44:01;2.20;;;1.30;;
2408;SDS011;8463;48.094;7.970;2023-03-29T02:46:31;2.50;;;1.87;;
2408;SDS011;8463;48.094;7.970;2023-03-29T02:48:57;4.60;;;1.80;;
2408;SDS011;8463;48.094;7.970;2023-03-29T02:51:27;2.30;;;1.90;;
2408;SDS011;8463;48.094;7.970;2023-03-29T02:53:58;1.70;;;1.60;;
2408;SDS011;8463;48.094;7.970;2023-03-29T02:56:27;1.97;;;1.70;;
2408;SDS011;8463;48.094;7.970;2023-03-29T02:58:52;1.60;;;1.27;;
2408;SDS011;8463;48.094;7.970;2023-03-29T03:01:18;1.57;;;1.40;;
2408;SDS011;8463;48.094;7.970;2023-03-29T03:03:47;2.37;;;1.60;;
2408;SDS011;8463;48.094;7.970;2023-03-29T03:06:14;2.60;;;1.67;;
2408;SDS011;8463;48.094;7.970;2023-03-29T03:08:40;2.30;;;1.57;;
2408;SDS011;8463;48.094;7.970;2023-03-29T03:11:06;3.97;;;2.00;;
2408;SDS011;8463;48.094;7.970;2023-03-29T03:13:32;2.00;;;1.60;;
2408;SDS011;8463;48.094;7.970;2023-03-29T03:15:58;4.53;;;2.10;;
2408;SDS011;8463;48.094;7.970;2023-03-29T03:18:25;2.13;;;1.43;;
2408;SDS011;8463;48.094;7.970;2023-03-29T03:20:58;1.50;;;1.40;;
2408;SDS011;8463;48.094;7.970;2023-03-29T03:23:25;1.93;;;1.73;;
2408;SDS011;8463;48.094;7.970;2023-03-29T03:25:51;2.40;;;1.40;;
2408;SDS011;8463;48.094;7.970;2023-03-29T03:28:17;1.50;;;1.40;;
2408;SDS011;8463;48.094;7.970;2023-03-29T03:30:46;2.67;;;1.60;;
2408;SDS011;8463;48.094;7.970;2023-03-29T03:33:12;1.97;;;1.47;;
2408;SDS011;8463;48.094;7.970;2023-03-29T03:35:38;1.20;;;1.10;;
2408;SDS011;8463;48.094;7.970;2023-03-29T03:38:04;2.37;;;1.37;;
2408;SDS011;8463;48.094;7.970;2023-03-29T03:40:30;5.23;;;1.20;;
2408;SDS011;8463;48.094;7.970;2023-03-29T03:42:56;1.40;;;1.30;;
2408;SDS011;8463;48.094;7.970;2023-03-29T03:45:22;1.73;;;1.43;;
2408;SDS011;8463;48.094;7.970;2023-03-29T03:47:49;1.97;;;1.43;;
2408;SDS011;8463;48.094;7.970;2023-03-29T03:50:15;2.30;;;1.73;;
2408;SDS011;8463;48.094;7.970;2023-03-29T03:52:42;3.70;;;1.70;;
2408;SDS011;8463;48.094;7.970;2023-03-29T03:55:08;2.27;;;1.80;;
2408;SDS011;8463;48.094;7.970;2023-03-29T03:57:34;1.63;;;1.53;;
2408;SDS011;8463;48.094;7.970;2023-03-29T04:00:05;2.57;;;1.80;;
2408;SDS011;8463;48.094;7.970;2023-03-29T04:02:44;2.30;;;1.87;;
2408;SDS011;8463;48.094;7.970;2023-03-29T04:05:11;1.70;;;1.60;;
2408;SDS011;8463;48.094;7.970;2023-03-29T04:07:36;2.50;;;2.30;;
2408;SDS011;8463;48.094;7.970;2023-03-29T04:10:05;2.40;;;1.57;;
2408;SDS011;8463;48.094;7.970;2023-03-29T04:12:33;2.30;;;2.10;;
2408;SDS011;8463;48.094;7.970;2023-03-29T04:14:59;1.83;;;1.67;;
2408;SDS011;8463;48.094;7.970;2023-03-29T04:17:26;2.60;;;2.10;;
2408;SDS011;8463;48.094;7.970;2023-03-29T04:19:51;2.13;;;1.87;;
2408;SDS011;8463;48.094;7.970;2023-03-29T04:22:17;2.77;;;1.53;;
2408;SDS011;8463;48.094;7.970;2023-03-29T04:24:43;1.70;;;1.60;;
2408;SDS011;8463;48.094;7.970;2023-03-29T04:27:11;4.00;;;2.23;;
2408;SDS011;8463;48.094;7.970;2023-03-29T04:29:36;2.80;;;2.10;;
2408;SDS011;8463;48.094;7.970;2023-03-29T04:32:02;3.53;;;2.43;;
2408;SDS011;8463;48.094;7.970;2023-03-29T04:34:28;5.63;;;4.90;;
2408;SDS011;8463;48.094;7.970;2023-03-29T04:36:53;4.90;;;3.97;;
2408;SDS011;8463;48.094;7.970;2023-03-29T04:39:19;3.90;;;2.80;;
2408;SDS011;8463;48.094;7.970;2023-03-29T04:41:45;3.10;;;2.50;;
2408;SDS011;8463;48.094;7.970;2023-03-29T04:44:11;3.20;;;2.73;;
2408;SDS011;8463;48.094;7.970;2023-03-29T04:46:38;5.43;;;2.40;;
2408;SDS011;8463;48.094;7.970;2023-03-29T04:49:04;4.70;;;2.37;;
2408;SDS011;8463;48.094;7.970;2023-03-29T04:51:30;3.00;;;2.53;;
2408;SDS011;8463;48.094;7.970;2023-03-29T04:53:57;3.70;;;2.57;;
2408;SDS011;8463;48.094;7.970;2023-03-29T04:56:23;2.83;;;2.20;;
2408;SDS011;8463;48.094;7.970;2023-03-29T04:58:48;3.57;;;2.53;;
2408;SDS011;8463;48.094;7.970;2023-03-29T05:01:15;2.90;;;2.70;;
2408;SDS011;8463;48.094;7.970;2023-03-29T05:03:41;3.97;;;2.83;;
2408;SDS011;8463;48.094;7.970;2023-03-29T05:06:09;2.43;;;2.23;;
2408;SDS011;8463;48.094;7.970;2023-03-29T05:08:36;5.63;;;2.60;;
2408;SDS011;8463;48.094;7.970;2023-03-29T05:11:07;3.53;;;2.97;;
2408;SDS011;8463;48.094;7.970;2023-03-29T05:13:35;4.87;;;2.80;;
2408;SDS011;8463;48.094;7.970;2023-03-29T05:16:01;5.90;;;2.87;;
2408;SDS011;8463;48.094;7.970;2023-03-29T05:18:28;3.20;;;2.50;;
2408;SDS011;8463;48.094;7.970;2023-03-29T05:20:56;2.40;;;2.07;;
2408;SDS011;8463;48.094;7.970;2023-03-29T05:23:22;4.80;;;2.60;;
2408;SDS011;8463;48.094;7.970;2023-03-29T05:25:49;2.43;;;2.10;;
2408;SDS011;8463;48.094;7.970;2023-03-29T05:28:16;3.20;;;1.90;;
2408;SDS011;8463;48.094;7.970;2023-03-29T05:30:45;2.53;;;2.33;;
2408;SDS011;8463;48.094;7.970;2023-03-29T05:33:11;3.73;;;2.17;;
2408;SDS011;8463;48.094;7.970;2023-03-29T05:35:39;2.27;;;2.07;;
2408;SDS011;8463;48.094;7.970;2023-03-29T05:38:05;3.40;;;2.70;;
2408;SDS011;8463;48.094;7.970;2023-03-29T05:40:33;3.43;;;2.40;;
2408;SDS011;8463;48.094;7.970;2023-03-29T05:42:59;6.23;;;3.77;;
2408;SDS011;8463;48.094;7.970;2023-03-29T05:45:29;6.77;;;4.60;;
2408;SDS011;8463;48.094;7.970;2023-03-29T05:47:56;10.13;;;5.70;;
2408;SDS011;8463;48.094;7.970;2023-03-29T05:50:22;10.43;;;7.40;;
2408;SDS011;8463;48.094;7.970;2023-03-29T05:52:47;10.40;;;7.10;;
2408;SDS011;8463;48.094;7.970;2023-03-29T05:55:13;11.27;;;8.03;;
2408;SDS011;8463;48.094;7.970;2023-03-29T05:57:38;7.63;;;4.30;;
2408;SDS011;8463;48.094;7.970;2023-03-29T06:00:05;6.13;;;3.90;;
2408;SDS011;8463;48.094;7.970;2023-03-29T06:02:51;7.80;;;3.60;;
2408;SDS011;8463;48.094;7.970;2023-03-29T06:05:18;2.90;;;2.67;;
2408;SDS011;8463;48.094;7.970;2023-03-29T06:07:44;3.53;;;2.77;;
2408;SDS011;8463;48.094;7.970;2023-03-29T06:10:10;3.00;;;2.40;;
2408;SDS011;8463;48.094;7.970;2023-03-29T06:12:36;5.30;;;3.27;;
2408;SDS011;8463;48.094;7.970;2023-03-29T06:15:02;8.30;;;4.37;;
2408;SDS011;8463;48.094;7.970;2023-03-29T06:17:32;6.27;;;4.57;;
2408;SDS011;8463;48.094;7.970;2023-03-29T06:19:58;4.23;;;3.00;;
2408;SDS011;8463;48.094;7.970;2023-03-29T06:22:24;5.40;;;3.90;;
2408;SDS011;8463;48.094;7.970;2023-03-29T06:24:51;4.83;;;3.10;;
2408;SDS011;8463;48.094;7.970;2023-03-29T06:27:17;6.63;;;5.40;;
2408;SDS011;8463;48.094;7.970;2023-03-29T06:29:43;5.23;;;3.80;;
2408;SDS011;8463;48.094;7.970;2023-03-29T06:32:09;8.07;;;6.20;;
2408;SDS011;8463;48.094;7.970;2023-03-29T06:34:35;6.40;;;5.30;;
2408;SDS011;8463;48.094;7.970;2023-03-29T06:37:01;5.70;;;5.10;;
2408;SDS011;8463;48.094;7.970;2023-03-29T06:39:27;9.20;;;4.37;;
2408;SDS011;8463;48.094;7.970;2023-03-29T06:41:54;6.70;;;4.87;;
2408;SDS011;8463;48.094;7.970;2023-03-29T06:44:20;5.33;;;3.47;;
2408;SDS011;8463;48.094;7.970;2023-03-29T06:46:45;6.47;;;2.87;;
2408;SDS011;8463;48.094;7.970;2023-03-29T06:49:11;4.83;;;3.27;;
2408;SDS011;8463;48.094;7.970;2023-03-29T06:51:37;2.60;;;1.60;;
2408;SDS011;8463;48.094;7.970;2023-03-29T06:54:04;5.03;;;1.80;;
2408;SDS011;8463;48.094;7.970;2023-03-29T06:56:29;1.63;;;1.13;;
2408;SDS011;8463;48.094;7.970;2023-03-29T06:58:56;1.43;;;1.00;;
2408;SDS011;8463;48.094;7.970;2023-03-29T07:01:22;1.90;;;1.20;;
2408;SDS011;8463;48.094;7.970;2023-03-29T07:03:48;1.23;;;1.10;;
2408;SDS011;8463;48.094;7.970;2023-03-29T07:06:14;1.83;;;1.70;;
2408;SDS011;8463;48.094;7.970;2023-03-29T07:08:41;2.90;;;1.50;;
2408;SDS011;8463;48.094;7.970;2023-03-29T07:11:11;2.47;;;1.10;;
2408;SDS011;8463;48.094;7.970;2023-03-29T07:13:38;3.53;;;2.00;;
2408;SDS011;8463;48.094;7.970;2023-03-29T07:16:07;2.10;;;1.40;;
2408;SDS011;8463;48.094;7.970;2023-03-29T07:18:37;1.50;;;1.13;;
2408;SDS011;8463;48.094;7.970;2023-03-29T07:21:05;1.23;;;1.13;;
2408;SDS011;8463;48.094;7.970;2023-03-29T07:23:32;1.03;;;0.90;;
2408;SDS011;8463;48.094;7.970;2023-03-29T07:25:59;3.80;;;1.47;;
2408;SDS011;8463;48.094;7.970;2023-03-29T07:28:25;1.37;;;1.10;;
2408;SDS011;8463;48.094;7.970;2023-03-29T07:30:51;1.50;;;1.30;;
2408;SDS011;8463;48.094;7.970;2023-03-29T07:33:19;1.43;;;1.33;;
2408;SDS011;8463;48.094;7.970;2023-03-29T07:35:45;1.07;;;0.80;;
2408;SDS011;8463;48.094;7.970;2023-03-29T07:38:12;1.23;;;1.07;;
2408;SDS011;8463;48.094;7.970;2023-03-29T07:40:39;1.77;;;1.47;;
2408;SDS011;8463;48.094;7.970;2023-03-29T07:43:05;1.70;;;1.13;;
2408;SDS011;8463;48.094;7.970;2023-03-29T07:45:33;1.17;;;1.07;;
2408;SDS011;8463;48.094;7.970;2023-03-29T07:47:58;1.17;;;0.70;;
2408;SDS011;8463;48.094;7.970;2023-03-29T07:50:25;1.20;;;0.90;;
2408;SDS011;8463;48.094;7.970;2023-03-29T07:52:51;1.10;;;0.90;;
2408;SDS011;8463;48.094;7.970;2023-03-29T07:55:17;1.70;;;1.20;;
2408;SDS011;8463;48.094;7.970;2023-03-29T07:57:43;2.73;;;1.93;;
2408;SDS011;8463;48.094;7.970;2023-03-29T08:00:09;8.33;;;5.50;;
2408;SDS011;8463;48.094;7.970;2023-03-29T08:02:40;19.67;;;10.90;;
2408;SDS011;8463;48.094;7.970;2023-03-29T08:05:10;4.53;;;2.77;;
2408;SDS011;8463;48.094;7.970;2023-03-29T08:07:43;4.10;;;2.00;;
2408;SDS011;8463;48.094;7.970;2023-03-29T08:10:11;1.70;;;1.30;;
2408;SDS011;8463;48.094;7.970;2023-03-29T08:12:39;2.40;;;1.27;;
2408;SDS011;8463;48.094;7.970;2023-03-29T08:15:06;1.27;;;1.17;;
2408;SDS011;8463;48.094;7.970;2023-03-29T08:17:32;2.60;;;1.80;;
2408;SDS011;8463;48.094;7.970;2023-03-29T08:19:59;1.73;;;1.30;;
2408;SDS011;8463;48.094;7.970;2023-03-29T08:22:25;5.20;;;2.93;;
2408;SDS011;8463;48.094;7.970;2023-03-29T08:24:51;2.10;;;1.90;;
2408;SDS011;8463;48.094;7.970;2023-03-29T08:27:17;3.07;;;1.60;;
2408;SDS011;8463;48.094;7.970;2023-03-29T08:29:43;3.77;;;3.13;;
2408;SDS011;8463;48.094;7.970;2023-03-29T08:32:08;6.20;;;2.30;;
2408;SDS011;8463;48.094;7.970;2023-03-29T08:34:34;3.93;;;2.30;;
2408;SDS011;8463;48.094;7.970;2023-03-29T08:37:01;2.00;;;1.67;;
2408;SDS011;8463;48.094;7.970;2023-03-29T08:39:28;1.10;;;1.03;;
2408;SDS011;8463;48.094;7.970;2023-03-29T08:49:59;2.70;;;1.07;;
2408;SDS011;8463;48.094;7.970;2023-03-29T08:54:57;5.57;;;2.37;;
2408;SDS011;8463;48.094;7.970;2023-03-29T08:57:29;1.37;;;0.83;;
2408;SDS011;8463;48.094;7.970;2023-03-29T08:59:58;1.30;;;1.03;;
2408;SDS011;8463;48.094;7.970;2023-03-29T09:02:29;2.40;;;1.20;;
2408;SDS011;8463;48.094;7.970;2023-03-29T09:07:53;3.30;;;2.20;;
2408;SDS011;8463;48.094;7.970;2023-03-29T09:10:20;1.93;;;1.60;;
2408;SDS011;8463;48.094;7.970;2023-03-29T09:15:35;3.97;;;2.20;;
2408;SDS011;8463;48.094;7.970;2023-03-29T09:24:19;1.80;;;1.20;;
2408;SDS011;8463;48.094;7.970;2023-03-29T09:26:45;4.07;;;1.97;;
2408;SDS011;8463;48.094;7.970;2023-03-29T09:32:19;6.60;;;3.80;;
2408;SDS011;8463;48.094;7.970;2023-03-29T09:34:53;8.60;;;4.43;;
2408;SDS011;8463;48.094;7.970;2023-03-29T09:37:42;3.20;;;2.87;;
2408;SDS011;8463;48.094;7.970;2023-03-29T09:40:14;2.67;;;1.40;;
2408;SDS011;8463;48.094;7.970;2023-03-29T09:42:50;5.40;;;2.77;;
2408;SDS011;8463;48.094;7.970;2023-03-29T09:45:17;1.90;;;1.47;;
2408;SDS011;8463;48.094;7.970;2023-03-29T09:47:47;1.60;;;1.50;;
2408;SDS011;8463;48.094;7.970;2023-03-29T09:50:27;1.80;;;1.70;;
2408;SDS011;8463;48.094;7.970;2023-03-29T09:52:56;2.10;;;1.90;;
2408;SDS011;8463;48.094;7.970;2023-03-29T09:55:25;1.93;;;1.57;;
2408;SDS011;8463;48.094;7.970;2023-03-29T09:57:57;1.20;;;1.10;;
2408;SDS011;8463;48.094;7.970;2023-03-29T10:00:25;5.73;;;1.33;;
2408;SDS011;8463;48.094;7.970;2023-03-29T10:02:51;1.00;;;0.90;;
2408;SDS011;8463;48.094;7.970;2023-03-29T10:05:22;2.70;;;1.80;;
2408;SDS011;8463;48.094;7.970;2023-03-29T10:07:50;2.00;;;0.87;;
2408;SDS011;8463;48.094;7.970;2023-03-29T10:10:22;2.33;;;1.40;;
2408;SDS011;8463;48.094;7.970;2023-03-29T10:12:53;1.90;;;1.30;;
2408;SDS011;8463;48.094;7.970;2023-03-29T10:15:25;1.90;;;1.40;;
2408;SDS011;8463;48.094;7.970;2023-03-29T10:17:59;1.60;;;1.20;;
2408;SDS011;8463;48.094;7.970;2023-03-29T10:20:27;1.30;;;1.13;;
2408;SDS011;8463;48.094;7.970;2023-03-29T10:22:55;2.03;;;0.90;;
2408;SDS011;8463;48.094;7.970;2023-03-29T10:25:27;3.13;;;1.17;;
2408;SDS011;8463;48.094;7.970;2023-03-29T10:28:28;3.23;;;1.00;;
2408;SDS011;8463;48.094;7.970;2023-03-29T10:30:55;3.13;;;0.90;;
2408;SDS011;8463;48.094;7.970;2023-03-29T10:33:23;2.10;;;0.93;;
2408;SDS011;8463;48.094;7.970;2023-03-29T10:35:53;1.03;;;0.93;;
2408;SDS011;8463;48.094;7.970;2023-03-29T10:38:21;0.87;;;0.87;;
2408;SDS011;8463;48.094;7.970;2023-03-29T10:40:50;2.23;;;1.10;;
2408;SDS011;8463;48.094;7.970;2023-03-29T10:43:21;1.70;;;1.00;;
2408;SDS011;8463;48.094;7.970;2023-03-29T10:45:53;1.77;;;1.20;;
2408;SDS011;8463;48.094;7.970;2023-03-29T10:48:27;1.57;;;1.20;;
2408;SDS011;8463;48.094;7.970;2023-03-29T10:51:01;2.10;;;1.30;;
2408;SDS011;8463;48.094;7.970;2023-03-29T10:53:34;1.03;;;0.77;;
2408;SDS011;8463;48.094;7.970;2023-03-29T11:01:42;1.30;;;1.20;;
2408;SDS011;8463;48.094;7.970;2023-03-29T11:04:42;1.57;;;1.10;;
2408;SDS011;8463;48.094;7.970;2023-03-29T11:29:14;2.00;;;1.63;;
2408;SDS011;8463;48.094;7.970;2023-03-29T11:31:56;1.00;;;0.90;;
2408;SDS011;8463;48.094;7.970;2023-03-29T11:37:33;2.03;;;0.87;;
2408;SDS011;8463;48.094;7.970;2023-03-29T11:40:21;1.53;;;1.13;;
2408;SDS011;8463;48.094;7.970;2023-03-29T11:43:01;1.50;;;1.17;;
2408;SDS011;8463;48.094;7.970;2023-03-29T11:45:38;1.00;;;0.90;;
2408;SDS011;8463;48.094;7.970;2023-03-29T11:48:12;5.60;;;1.17;;
2408;SDS011;8463;48.094;7.970;2023-03-29T11:50:46;3.00;;;1.30;;
2408;SDS011;8463;48.094;7.970;2023-03-29T11:53:15;1.47;;;1.00;;
2408;SDS011;8463;48.094;7.970;2023-03-29T11:55:50;2.40;;;1.00;;
2408;SDS011;8463;48.094;7.970;2023-03-29T11:58:19;1.80;;;1.00;;
2408;SDS011;8463;48.094;7.970;2023-03-29T12:00:54;1.80;;;1.70;;
2408;SDS011;8463;48.094;7.970;2023-03-29T12:06:03;1.03;;;0.60;;
2408;SDS011;8463;48.094;7.970;2023-03-29T12:13:52;1.73;;;1.20;;
2408;SDS011;8463;48.094;7.970;2023-03-29T12:16:46;1.47;;;0.97;;
2408;SDS011;8463;48.094;7.970;2023-03-29T12:21:50;1.80;;;1.17;;
2408;SDS011;8463;48.094;7.970;2023-03-29T12:24:20;2.57;;;1.10;;
2408;SDS011;8463;48.094;7.970;2023-03-29T12:39:51;2.03;;;0.93;;
2408;SDS011;8463;48.094;7.970;2023-03-29T12:42:41;1.37;;;1.10;;
2408;SDS011;8463;48.094;7.970;2023-03-29T12:45:30;1.70;;;1.60;;
2408;SDS011;8463;48.094;7.970;2023-03-29T12:48:01;1.10;;;0.93;;
2408;SDS011;8463;48.094;7.970;2023-03-29T12:50:41;3.10;;;1.30;;
2408;SDS011;8463;48.094;7.970;2023-03-29T13:03:34;2.80;;;1.23;;
2408;SDS011;8463;48.094;7.970;2023-03-29T13:06:10;1.53;;;1.10;;
2408;SDS011;8463;48.094;7.970;2023-03-29T13:08:41;1.80;;;1.00;;
2408;SDS011;8463;48.094;7.970;2023-03-29T13:11:22;2.67;;;1.40;;
2408;SDS011;8463;48.094;7.970;2023-03-29T13:13:51;1.70;;;1.10;;
2408;SDS011;8463;48.094;7.970;2023-03-29T13:16:27;3.40;;;1.27;;
2408;SDS011;8463;48.094;7.970;2023-03-29T13:38:29;3.03;;;1.40;;
2408;SDS011;8463;48.094;7.970;2023-03-29T13:41:03;2.90;;;1.27;;
2408;SDS011;8463;48.094;7.970;2023-03-29T13:43:35;1.17;;;1.07;;
2408;SDS011;8463;48.094;7.970;2023-03-29T13:57:18;2.50;;;1.50;;
2408;SDS011;8463;48.094;7.970;2023-03-29T13:59:58;2.50;;;1.07;;
2408;SDS011;8463;48.094;7.970;2023-03-29T14:02:36;5.57;;;1.10;;
2408;SDS011;8463;48.094;7.970;2023-03-29T14:05:13;2.53;;;1.03;;
2408;SDS011;8463;48.094;7.970;2023-03-29T14:07:51;1.90;;;1.20;;
2408;SDS011;8463;48.094;7.970;2023-03-29T14:10:20;3.33;;;1.40;;
2408;SDS011;8463;48.094;7.970;2023-03-29T14:12:50;3.03;;;1.10;;
2408;SDS011;8463;48.094;7.970;2023-03-29T14:15:22;3.77;;;1.40;;
2408;SDS011;8463;48.094;7.970;2023-03-29T14:17:55;3.20;;;1.67;;
2408;SDS011;8463;48.094;7.970;2023-03-29T14:20:21;8.93;;;2.20;;
2408;SDS011;8463;48.094;7.970;2023-03-29T14:22:48;1.50;;;1.00;;
2408;SDS011;8463;48.094;7.970;2023-03-29T14:25:16;1.70;;;1.10;;
2408;SDS011;8463;48.094;7.970;2023-03-29T14:27:42;1.67;;;1.30;;
2408;SDS011;8463;48.094;7.970;2023-03-29T14:30:23;2.80;;;1.30;;
2408;SDS011;8463;48.094;7.970;2023-03-29T14:32:51;1.40;;;1.30;;
2408;SDS011;8463;48.094;7.970;2023-03-29T14:35:17;2.70;;;1.10;;
2408;SDS011;8463;48.094;7.970;2023-03-29T14:37:44;3.03;;;1.37;;
2408;SDS011;8463;48.094;7.970;2023-03-29T14:40:16;4.80;;;1.10;;
2408;SDS011;8463;48.094;7.970;2023-03-29T14:42:44;1.10;;;1.00;;
2408;SDS011;8463;48.094;7.970;2023-03-29T14:45:14;7.10;;;1.97;;
2408;SDS011;8463;48.094;7.970;2023-03-29T14:47:41;2.90;;;2.00;;
2408;SDS011;8463;48.094;7.970;2023-03-29T14:50:27;3.30;;;1.20;;
2408;SDS011;8463;48.094;7.970;2023-03-29T14:52:55;4.07;;;1.30;;
2408;SDS011;8463;48.094;7.970;2023-03-29T14:55:22;3.67;;;1.47;;
2408;SDS011;8463;48.094;7.970;2023-03-29T14:57:49;1.93;;;1.13;;
2408;SDS011;8463;48.094;7.970;2023-03-29T15:02:56;1.43;;;1.20;;
2408;SDS011;8463;48.094;7.970;2023-03-29T15:05:31;3.17;;;1.20;;
2408;SDS011;8463;48.094;7.970;2023-03-29T15:07:57;1.53;;;1.30;;
2408;SDS011;8463;48.094;7.970;2023-03-29T15:10:25;1.53;;;1.43;;
2408;SDS011;8463;48.094;7.970;2023-03-29T15:12:51;4.40;;;1.67;;
2408;SDS011;8463;48.094;7.970;2023-03-29T15:15:18;1.40;;;1.23;;
2408;SDS011;8463;48.094;7.970;2023-03-29T15:17:44;4.90;;;1.57;;
2408;SDS011;8463;48.094;7.970;2023-03-29T15:20:12;3.23;;;2.00;;
2408;SDS011;8463;48.094;7.970;2023-03-29T15:22:49;2.10;;;1.10;;
2408;SDS011;8463;48.094;7.970;2023-03-29T15:25:18;2.20;;;1.87;;
2408;SDS011;8463;48.094;7.970;2023-03-29T15:27:46;3.03;;;1.20;;
2408;SDS011;8463;48.094;7.970;2023-03-29T15:30:15;2.33;;;1.47;;
2408;SDS011;8463;48.094;7.970;2023-03-29T15:32:42;1.70;;;1.20;;
2408;SDS011;8463;48.094;7.970;2023-03-29T15:35:23;3.57;;;1.33;;
2408;SDS011;8463;48.094;7.970;2023-03-29T15:37:49;2.30;;;1.60;;
2408;SDS011;8463;48.094;7.970;2023-03-29T15:40:21;1.43;;;1.17;;
2408;SDS011;8463;48.094;7.970;2023-03-29T15:42:50;2.73;;;1.30;;
2408;SDS011;8463;48.094;7.970;2023-03-29T15:45:16;7.77;;;2.43;;
2408;SDS011;8463;48.094;7.970;2023-03-29T15:47:45;3.70;;;1.60;;
2408;SDS011;8463;48.094;7.970;2023-03-29T15:50:11;2.20;;;1.40;;
2408;SDS011;8463;48.094;7.970;2023-03-29T15:52:36;1.20;;;1.00;;
2408;SDS011;8463;48.094;7.970;2023-03-29T15:55:02;2.27;;;1.00;;
2408;SDS011;8463;48.094;7.970;2023-03-29T15:57:28;1.77;;;1.03;;
2408;SDS011;8463;48.094;7.970;2023-03-29T15:59:55;2.70;;;1.40;;
2408;SDS011;8463;48.094;7.970;2023-03-29T16:02:21;2.80;;;1.30;;
2408;SDS011;8463;48.094;7.970;2023-03-29T16:04:48;1.17;;;0.90;;
2408;SDS011;8463;48.094;7.970;2023-03-29T16:07:17;1.43;;;1.10;;
2408;SDS011;8463;48.094;7.970;2023-03-29T16:09:44;6.27;;;1.50;;
2408;SDS011;8463;48.094;7.970;2023-03-29T16:12:12;1.20;;;1.00;;
2408;SDS011;8463;48.094;7.970;2023-03-29T16:14:40;3.47;;;1.23;;
2408;SDS011;8463;48.094;7.970;2023-03-29T16:17:06;2.93;;;1.60;;
2408;SDS011;8463;48.094;7.970;2023-03-29T16:19:32;1.40;;;1.03;;
2408;SDS011;8463;48.094;7.970;2023-03-29T16:21:58;2.97;;;1.30;;
2408;SDS011;8463;48.094;7.970;2023-03-29T16:24:27;2.43;;;0.90;;
2408;SDS011;8463;48.094;7.970;2023-03-29T16:26:58;2.03;;;1.70;;
2408;SDS011;8463;48.094;7.970;2023-03-29T16:29:25;4.23;;;1.33;;
2408;SDS011;8463;48.094;7.970;2023-03-29T16:31:51;3.13;;;1.20;;
2408;SDS011;8463;48.094;7.970;2023-03-29T16:34:17;1.90;;;1.70;;
2408;SDS011;8463;48.094;7.970;2023-03-29T16:36:44;1.80;;;1.33;;
2408;SDS011;8463;48.094;7.970;2023-03-29T16:39:13;2.47;;;1.60;;
2408;SDS011;8463;48.094;7.970;2023-03-29T16:41:45;2.17;;;1.40;;
2408;SDS011;8463;48.094;7.970;2023-03-29T16:44:14;7.23;;;1.60;;
2408;SDS011;8463;48.094;7.970;2023-03-29T16:46:41;2.17;;;1.40;;
2408;SDS011;8463;48.094;7.970;2023-03-29T16:49:08;7.43;;;2.13;;
2408;SDS011;8463;48.094;7.970;2023-03-29T16:51:37;1.70;;;1.27;;
2408;SDS011;8463;48.094;7.970;2023-03-29T16:54:03;3.03;;;1.47;;
2408;SDS011;8463;48.094;7.970;2023-03-29T16:56:29;1.90;;;1.37;;
2408;SDS011;8463;48.094;7.970;2023-03-29T16:58:55;3.23;;;1.03;;
2408;SDS011;8463;48.094;7.970;2023-03-29T17:01:20;3.83;;;1.63;;
2408;SDS011;8463;48.094;7.970;2023-03-29T17:03:46;1.20;;;1.10;;
2408;SDS011;8463;48.094;7.970;2023-03-29T17:06:12;1.63;;;1.37;;
2408;SDS011;8463;48.094;7.970;2023-03-29T17:08:37;3.40;;;1.70;;
2408;SDS011;8463;48.094;7.970;2023-03-29T17:11:04;3.03;;;1.30;;
2408;SDS011;8463;48.094;7.970;2023-03-29T17:13:32;2.70;;;1.90;;
2408;SDS011;8463;48.094;7.970;2023-03-29T17:15:58;2.23;;;1.23;;
2408;SDS011;8463;48.094;7.970;2023-03-29T17:18:25;5.07;;;2.07;;
2408;SDS011;8463;48.094;7.970;2023-03-29T17:20:52;3.43;;;1.80;;
2408;SDS011;8463;48.094;7.970;2023-03-29T17:23:20;1.57;;;1.10;;
2408;SDS011;8463;48.094;7.970;2023-03-29T17:25:46;5.13;;;1.80;;
2408;SDS011;8463;48.094;7.970;2023-03-29T17:28:12;7.03;;;1.23;;
2408;SDS011;8463;48.094;7.970;2023-03-29T17:30:38;2.17;;;1.20;;
2408;SDS011;8463;48.094;7.970;2023-03-29T17:33:03;4.57;;;1.57;;
2408;SDS011;8463;48.094;7.970;2023-03-29T17:35:30;1.80;;;1.70;;
2408;SDS011;8463;48.094;7.970;2023-03-29T17:37:56;6.70;;;2.17;;
2408;SDS011;8463;48.094;7.970;2023-03-29T17:40:22;7.50;;;1.67;;
2408;SDS011;8463;48.094;7.970;2023-03-29T17:42:49;2.30;;;1.27;;
2408;SDS011;8463;48.094;7.970;2023-03-29T17:45:16;1.63;;;1.30;;
2408;SDS011;8463;48.094;7.970;2023-03-29T17:47:42;3.03;;;1.60;;
2408;SDS011;8463;48.094;7.970;2023-03-29T17:50:09;2.60;;;1.57;;
2408;SDS011;8463;48.094;7.970;2023-03-29T17:52:35;3.13;;;2.60;;
2408;SDS011;8463;48.094;7.970;2023-03-29T17:55:03;4.27;;;3.33;;
2408;SDS011;8463;48.094;7.970;2023-03-29T17:57:41;5.10;;;2.77;;
2408;SDS011;8463;48.094;7.970;2023-03-29T18:00:09;3.00;;;1.70;;
2408;SDS011;8463;48.094;7.970;2023-03-29T18:02:36;4.87;;;2.50;;